Terminal Aerodrome Forecast
Issued by NWS

Home | Current Version | Previous Version | Text Only | Print | Product List | Glossary Off
Versions: 1 2 3 4 5 6 7 8 9 10 11 12 13 14 15 16 17 18 19 20 21 22 23 24

000
FTUS43 KICT 170500
TAFRSL
TAF
KRSL 170522Z 1706/1806 16008KT P6SM SCT030
      TEMPO 1709/1713 3SM BR SCT010
     FM171500 20008KT P6SM SCT040
     FM172100 09007KT P6SM SCT035=

USA.gov is the U.S. government's official web portal to all federal, state and local government web resources and services.